Terminal Aerodrome Forecast
Issued by NWS Boston, MA

Home | Current Version | Previous Version | Text Only | Print | Product List | Glossary On
Versions: 1 2 3 4 5 6 7 8 9 10 11 12 13 14 15 16 17 18 19 20 21 22 23 24 25 26 27 28 29 30 31 32 33 34 35 36
000
FTUS41 KBOX 281136
TAFORH
TAF
KORH 281136Z 2812/0112 27005KT P6SM OVC060
     FM281600 21004KT P6SM BKN060
     FM282200 15007KT P6SM BKN035
     FM010000 16006KT P6SM OVC015
     FM010400 18006KT 3SM -SHRA OVC010
     FM010600 19008KT 3SM -RA BR OVC010
     FM010900 20009KT 3SM BR VCSH OVC010=

USA.gov is the U.S. government's official web portal to all federal, state and local government web resources and services.